Time;durP1;ratioP1;P1;durP2;ratioP2;P2;SDS_P1;SDS_P2;PMS_P1;PMS_P2;Temp;Humidity;BMP_temperature;BMP_pressure;BME280_temperature;BME280_humidity;BME280_pressure;Samples;Min_cycle;Max_cycle;Signal;HPM_P1;HPM_P2
2021/07/08 00:02:13;;;;;;;4.60;3.50;;;;;;;19.59;72.49;99324.63;124911;1093;64248;-80
2021/07/08 00:04:40;;;;;;;6.53;4.10;;;;;;;19.56;72.88;99324.90;124996;1093;64281;-82
2021/07/08 00:07:11;;;;;;;4.30;3.90;;;;;;;19.48;72.36;99324.81;124997;1092;64329;-80
2021/07/08 00:09:38;;;;;;;7.10;4.03;;;;;;;19.45;72.72;99322.41;124954;1092;64238;-81
2021/07/08 00:12:06;;;;;;;7.77;5.03;;;;;;;19.43;72.80;99321.70;124944;1092;64269;-80
2021/07/08 00:14:35;;;;;;;6.37;5.70;;;;;;;19.42;72.54;99338.94;124928;1093;64268;-80
2021/07/08 00:17:05;;;;;;;11.60;5.80;;;;;;;19.43;73.04;99332.52;124906;1093;64284;-80
2021/07/08 00:19:32;;;;;;;5.90;5.30;;;;;;;19.40;72.50;99339.08;124844;1093;64245;-80
2021/07/08 00:21:58;;;;;;;6.70;5.85;;;;;;;19.39;72.88;99341.95;124857;1093;64268;-80
2021/07/08 00:24:25;;;;;;;8.93;6.20;;;;;;;19.39;72.82;99339.25;124930;1093;64414;-79
2021/07/08 00:26:52;;;;;;;5.57;4.50;;;;;;;19.36;72.71;99331.45;124830;1093;64290;-80
2021/07/08 00:29:18;;;;;;;5.33;4.20;;;;;;;19.34;72.55;99341.55;124794;1093;64281;-80
2021/07/08 00:31:45;;;;;;;8.07;3.47;;;;;;;19.25;72.49;99335.20;124797;1093;64194;-80
2021/07/08 00:34:12;;;;;;;4.15;3.75;;;;;;;19.18;72.70;99336.79;124864;1093;64287;-80
2021/07/08 00:36:39;;;;;;;4.73;3.53;;;;;;;19.11;72.97;99341.92;124910;1092;64335;-81
2021/07/08 00:39:06;;;;;;;4.80;3.40;;;;;;;19.04;73.16;99338.98;124944;1093;64290;-82
2021/07/08 00:41:32;;;;;;;6.07;3.70;;;;;;;18.99;73.38;99343.98;124957;1093;64290;-81
2021/07/08 00:43:59;;;;;;;4.80;3.47;;;;;;;18.93;73.38;99341.00;124995;1093;64287;-80
2021/07/08 00:46:28;;;;;;;4.70;3.30;;;;;;;18.90;73.51;99344.00;124961;1093;64281;-80
2021/07/08 00:48:55;;;;;;;5.87;3.47;;;;;;;18.86;73.84;99344.30;124967;1093;64201;-80
2021/07/08 00:51:21;;;;;;;3.93;3.17;;;;;;;18.82;73.67;99344.73;124959;1093;64279;-80
2021/07/08 00:53:48;;;;;;;5.37;3.00;;;;;;;18.78;73.58;99346.04;124944;1093;64274;-79
2021/07/08 00:56:15;;;;;;;5.17;2.97;;;;;;;18.76;73.60;99350.73;124992;1092;64219;-79
2021/07/08 00:58:46;;;;;;;4.20;3.10;;;;;;;18.75;73.86;99349.88;124967;1093;64393;-80
2021/07/08 01:01:13;;;;;;;5.60;3.40;;;;;;;18.74;74.08;99341.88;124956;1092;64300;-79
2021/07/08 01:03:39;;;;;;;3.57;3.27;;;;;;;18.74;73.76;99345.42;124924;1093;64261;-79
2021/07/08 01:06:06;;;;;;;4.30;3.13;;;;;;;18.76;74.10;99348.03;124876;1093;64338;-79
2021/07/08 01:08:33;;;;;;;8.10;4.00;;;;;;;18.74;73.86;99347.28;124893;1093;64273;-79
2021/07/08 01:10:59;;;;;;;7.23;3.20;;;;;;;18.71;74.32;99348.42;124816;1093;64392;-80
2021/07/08 01:13:26;;;;;;;3.67;3.20;;;;;;;18.71;74.36;99342.18;124873;1093;64265;-80
2021/07/08 01:15:53;;;;;;;5.03;3.37;;;;;;;18.74;74.22;99345.42;124882;1093;64294;-80
2021/07/08 01:18:20;;;;;;;5.30;3.33;;;;;;;18.73;73.95;99351.84;124913;1093;64284;-78
2021/07/08 01:20:46;;;;;;;5.07;2.90;;;;;;;18.73;74.22;99343.73;124772;1093;64278;-78
2021/07/08 01:23:13;;;;;;;5.53;3.33;;;;;;;18.73;74.16;99340.20;124779;1093;64310;-78
2021/07/08 01:25:42;;;;;;;4.70;3.03;;;;;;;18.72;74.07;99344.75;124787;1093;64281;-78
2021/07/08 01:28:10;;;;;;;3.30;3.00;;;;;;;18.73;74.08;99350.99;124858;1092;64309;-78
2021/07/08 01:30:37;;;;;;;6.33;3.20;;;;;;;18.71;74.54;99351.13;124837;1093;64393;-78
2021/07/08 01:33:06;;;;;;;3.57;3.20;;;;;;;18.72;74.42;99351.97;124867;1093;64262;-78
2021/07/08 01:35:32;;;;;;;3.43;3.13;;;;;;;18.68;74.35;99359.52;124772;1093;64299;-78
2021/07/08 01:37:59;;;;;;;4.70;3.50;;;;;;;18.65;74.77;99365.22;124795;1093;64267;-78
2021/07/08 01:40:26;;;;;;;3.67;3.03;;;;;;;18.59;74.53;99358.55;124790;1093;64293;-78
2021/07/08 01:42:52;;;;;;;3.50;3.20;;;;;;;18.58;74.68;99359.53;124786;1093;64284;-78
2021/07/08 01:45:19;;;;;;;4.17;2.87;;;;;;;18.56;74.68;99360.67;124774;1093;64283;-78
2021/07/08 01:47:46;;;;;;;6.33;3.50;;;;;;;18.52;74.86;99360.13;124821;1094;64418;-78
2021/07/08 01:50:15;;;;;;;4.40;2.73;;;;;;;18.53;74.83;99369.91;124850;1093;64264;-78
2021/07/08 01:52:43;;;;;;;4.13;3.73;;;;;;;18.52;75.12;99362.82;124782;1092;64216;-78
2021/07/08 01:55:10;;;;;;;3.77;3.30;;;;;;;18.49;74.82;99373.06;124776;1093;64274;-78
2021/07/08 01:57:45;;;;;;;6.07;3.77;;;;;;;18.47;75.13;99365.09;124810;1093;64190;-78
2021/07/08 02:00:37;;;;;;;4.80;4.10;;;;;;;18.47;75.19;99365.09;124844;1093;64659;-79
2021/07/08 02:03:03;;;;;;;5.10;4.20;;;;;;;18.50;75.35;99367.50;124792;1093;64443;-79
2021/07/08 02:05:30;;;;;;;6.60;4.57;;;;;;;18.47;75.15;99364.25;124798;1093;64306;-79
2021/07/08 02:07:57;;;;;;;7.40;4.10;;;;;;;18.47;75.42;99369.66;124774;1093;64284;-79
2021/07/08 02:10:23;;;;;;;7.17;4.60;;;;;;;18.45;75.17;99375.18;124805;1093;64293;-79
2021/07/08 02:12:50;;;;;;;6.80;5.23;;;;;;;18.41;75.67;99368.38;124753;1093;64408;-79
2021/07/08 02:15:17;;;;;;;9.40;4.70;;;;;;;18.35;75.06;99372.52;124845;1092;64284;-79
2021/07/08 02:17:44;;;;;;;8.07;5.37;;;;;;;18.31;75.33;99371.08;124793;1093;64268;-79
2021/07/08 02:20:13;;;;;;;5.87;5.13;;;;;;;18.27;75.90;99375.05;124812;1093;64290;-78
2021/07/08 02:22:40;;;;;;;6.60;4.95;;;;;;;18.23;76.00;99386.28;124837;1093;64284;-79
2021/07/08 02:25:09;;;;;;;7.07;4.60;;;;;;;18.19;75.84;99375.78;124846;1093;64309;-79
2021/07/08 02:27:37;;;;;;;4.20;3.73;;;;;;;18.19;76.22;99378.48;124881;1093;64268;-79
2021/07/08 02:30:12;;;;;;;4.17;3.60;;;;;;;18.12;76.04;99374.64;124854;1093;64287;-78
2021/07/08 02:32:40;;;;;;;5.53;4.00;;;;;;;18.10;76.09;99376.61;124893;1093;64281;-79
2021/07/08 02:35:11;;;;;;;6.80;3.80;;;;;;;18.06;75.88;99374.33;124874;1093;64281;-82
2021/07/08 02:37:38;;;;;;;5.80;4.10;;;;;;;18.03;76.31;99377.31;124883;1093;64265;-82
2021/07/08 02:40:08;;;;;;;4.67;3.80;;;;;;;17.99;76.40;99382.16;124888;1093;64304;-82
2021/07/08 02:42:34;;;;;;;4.18;3.88;;;;;;;17.94;76.29;99393.36;124885;1093;64262;-82
2021/07/08 02:45:01;;;;;;;4.17;3.77;;;;;;;17.92;76.57;99387.23;124907;1093;64278;-82
2021/07/08 02:47:28;;;;;;;6.37;3.83;;;;;;;17.96;77.18;99391.38;124850;1093;64242;-82
2021/07/08 02:49:54;;;;;;;6.40;3.65;;;;;;;18.03;76.80;99396.20;124863;1093;64271;-82
2021/07/08 02:52:21;;;;;;;5.80;3.93;;;;;;;18.03;77.22;99396.20;124927;1093;67041;-82
2021/07/08 02:54:47;;;;;;;4.30;3.90;;;;;;;18.02;76.89;99410.69;124878;1093;64265;-81
2021/07/08 02:57:14;;;;;;;4.33;3.93;;;;;;;17.98;76.90;99408.27;124888;1093;64287;-82
2021/07/08 02:59:40;;;;;;;3.63;3.33;;;;;;;18.00;77.33;99410.81;124846;1093;64267;-81
2021/07/08 03:02:07;;;;;;;5.63;3.67;;;;;;;18.02;77.39;99413.38;124862;1093;64367;-81
2021/07/08 03:04:33;;;;;;;5.50;4.10;;;;;;;18.05;77.31;99421.19;124897;1093;64309;-82
2021/07/08 03:07:00;;;;;;;4.70;3.90;;;;;;;18.04;76.82;99424.89;124900;1093;64270;-82
2021/07/08 03:09:27;;;;;;;5.17;4.10;;;;;;;18.04;77.03;99416.80;124840;1093;64267;-81
2021/07/08 03:11:54;;;;;;;6.03;4.27;;;;;;;18.04;76.79;99422.20;124851;1093;64271;-81
2021/07/08 03:14:20;;;;;;;6.50;3.87;;;;;;;18.06;77.46;99415.67;124847;1093;64440;-81
2021/07/08 03:16:47;;;;;;;5.30;4.70;;;;;;;18.09;77.21;99414.50;124828;1093;64312;-82
2021/07/08 03:19:14;;;;;;;6.97;6.03;;;;;;;18.15;77.27;99411.27;124862;1093;64267;-82
2021/07/08 03:21:40;;;;;;;6.60;5.43;;;;;;;18.21;77.06;99414.23;124909;1093;64299;-82
2021/07/08 03:24:07;;;;;;;8.50;6.67;;;;;;;18.27;76.64;99407.42;124867;1093;64270;-82
2021/07/08 03:26:34;;;;;;;12.40;8.47;;;;;;;18.36;76.54;99409.28;124865;1093;64412;-82
2021/07/08 03:29:02;;;;;;;10.30;9.27;;;;;;;18.42;76.14;99408.70;124897;1093;64284;-82
2021/07/08 03:31:29;;;;;;;11.70;10.60;;;;;;;18.67;76.00;99409.13;124889;1093;64290;-82
2021/07/08 03:33:56;;;;;;;13.37;12.17;;;;;;;18.83;75.12;99416.66;124876;1093;64265;-82
2021/07/08 03:36:22;;;;;;;11.97;9.87;;;;;;;19.06;74.76;99414.45;124798;1093;64288;-82
2021/07/08 03:38:49;;;;;;;11.27;10.17;;;;;;;19.37;74.25;99417.77;124839;1093;64276;-82
2021/07/08 03:41:15;;;;;;;11.77;8.50;;;;;;;19.76;73.90;99424.88;124876;1093;64319;-82
2021/07/08 03:43:42;;;;;;;6.53;5.00;;;;;;;20.07;73.01;99425.41;124774;1093;64290;-82
2021/07/08 03:46:09;;;;;;;6.27;4.33;;;;;;;20.46;71.99;99417.84;124891;1093;64271;-82
2021/07/08 03:48:35;;;;;;;4.17;3.73;;;;;;;20.85;70.70;99416.64;124871;1093;64267;-82
2021/07/08 03:51:02;;;;;;;5.07;3.47;;;;;;;21.13;70.35;99420.91;124806;1093;64418;-82
2021/07/08 03:53:29;;;;;;;6.03;4.37;;;;;;;21.55;69.56;99412.00;124854;1093;64411;-82
2021/07/08 03:55:55;;;;;;;5.13;4.40;;;;;;;21.96;68.27;99414.00;124883;1093;64309;-81
2021/07/08 03:58:22;;;;;;;6.55;4.40;;;;;;;22.31;66.22;99415.65;124881;1093;64216;-81
2021/07/08 04:00:48;;;;;;;5.20;4.33;;;;;;;22.51;66.55;99413.44;124870;1091;64312;-81
2021/07/08 04:03:17;;;;;;;7.90;5.30;;;;;;;22.79;65.70;99409.36;124930;1093;64265;-80
2021/07/08 04:05:47;;;;;;;8.23;4.65;;;;;;;23.11;64.32;99406.81;125026;1093;64335;-78
2021/07/08 04:08:15;;;;;;;7.97;5.23;;;;;;;23.21;63.66;99407.47;124824;1093;64272;-78
2021/07/08 04:10:43;;;;;;;5.10;4.60;;;;;;;23.51;63.07;99416.70;124782;1093;64271;-78
2021/07/08 04:13:13;;;;;;;7.23;4.23;;;;;;;23.91;62.83;99404.00;124839;1093;64293;-78
2021/07/08 04:15:40;;;;;;;;;;;;;;;24.45;61.09;99393.10;124860;1093;64267;-78
2021/07/08 04:18:07;;;;;;;5.40;4.20;;;;;;;24.81;60.17;99395.19;124808;1093;64273;-78
2021/07/08 04:20:35;;;;;;;4.40;3.47;;;;;;;25.25;59.67;99388.98;124843;1093;64245;-78
2021/07/08 04:23:05;;;;;;;6.47;4.10;;;;;;;25.77;58.74;99406.25;124843;1093;64278;-78
2021/07/08 04:25:34;;;;;;;6.47;3.77;;;;;;;25.95;57.89;99400.41;124914;1093;64772;-78
2021/07/08 04:28:01;;;;;;;4.15;3.75;;;;;;;25.61;57.83;99399.11;124877;1093;64327;-78
2021/07/08 04:30:28;;;;;;;5.53;3.60;;;;;;;25.78;57.04;99397.88;124914;1093;64193;-79
2021/07/08 04:32:56;;;;;;;6.83;4.17;;;;;;;26.10;55.99;99403.95;124773;1093;64278;-79
2021/07/08 04:35:32;;;;;;;4.50;3.30;;;;;;;26.00;55.81;99396.06;124838;1093;64287;-79
2021/07/08 04:37:59;;;;;;;3.47;2.63;;;;;;;25.83;56.08;99400.05;124780;1093;64271;-79
2021/07/08 04:40:27;;;;;;;6.33;3.20;;;;;;;25.32;56.03;99397.25;124798;1093;64306;-79
2021/07/08 04:42:54;;;;;;;3.85;3.35;;;;;;;24.74;56.58;99402.41;124850;1093;65470;-79
2021/07/08 04:45:20;;;;;;;5.60;3.40;;;;;;;24.40;57.07;99409.11;124876;1093;64283;-79
2021/07/08 04:47:48;;;;;;;5.13;2.87;;;;;;;24.79;56.54;99410.03;124748;1093;64335;-79
2021/07/08 04:50:20;;;;;;;5.77;4.10;;;;;;;25.00;55.78;99406.60;124870;1093;64271;-78
2021/07/08 04:52:50;;;;;;;4.27;3.87;;;;;;;25.27;55.43;99411.45;124838;1093;64309;-78
2021/07/08 04:55:20;;;;;;;5.00;3.30;;;;;;;25.18;55.61;99410.70;124839;1093;64290;-77
2021/07/08 04:57:49;;;;;;;12.50;4.03;;;;;;;25.32;55.37;99410.89;124815;1093;64286;-79
2021/07/08 05:00:21;;;;;;;8.17;3.93;;;;;;;25.39;55.18;99409.11;124787;1093;64293;-78
2021/07/08 05:02:50;;;;;;;5.90;3.57;;;;;;;25.34;55.15;99396.03;124768;1093;64268;-78
2021/07/08 05:05:18;;;;;;;5.80;3.60;;;;;;;25.28;54.81;99401.41;124832;1093;64354;-78
2021/07/08 05:07:46;;;;;;;6.63;4.23;;;;;;;25.67;54.21;99401.07;124720;1093;64370;-78
2021/07/08 05:10:15;;;;;;;5.83;4.00;;;;;;;25.49;54.95;99403.34;124858;1093;64268;-81
2021/07/08 05:12:43;;;;;;;4.83;3.48;;;;;;;25.37;54.76;99412.02;124917;1093;64268;-81
2021/07/08 05:15:14;;;;;;;4.33;3.77;;;;;;;25.90;54.11;99408.33;125268;1093;64354;-84
2021/07/08 05:17:41;;;;;;;7.50;3.90;;;;;;;26.05;53.14;99393.60;124949;1093;64326;-84
2021/07/08 05:20:09;;;;;;;5.10;4.50;;;;;;;25.77;53.71;99387.13;124959;1093;64293;-86
2021/07/08 05:22:38;;;;;;;5.67;4.30;;;;;;;25.39;53.79;99388.13;124995;1093;64276;-84
2021/07/08 05:25:07;;;;;;;4.93;4.43;;;;;;;25.07;54.30;99388.47;125140;1093;64271;-86
2021/07/08 05:27:34;;;;;;;7.27;4.60;;;;;;;24.67;54.77;99396.86;124875;1093;64674;-86
2021/07/08 05:30:02;;;;;;;6.33;5.60;;;;;;;24.27;55.33;99398.81;125143;1093;64287;-87
2021/07/08 05:32:29;;;;;;;6.97;5.43;;;;;;;23.98;55.83;99396.80;124736;1093;64842;-84
2021/07/08 05:34:55;;;;;;;7.80;5.50;;;;;;;23.72;56.50;99405.27;124869;1092;64281;-84
2021/07/08 05:37:22;;;;;;;6.00;4.43;;;;;;;23.45;57.16;99403.82;124943;1093;64312;-84
2021/07/08 05:39:49;;;;;;;7.27;5.10;;;;;;;23.13;57.67;99404.77;124898;1092;64273;-83
2021/07/08 05:42:16;;;;;;;13.83;5.60;;;;;;;22.78;58.49;99404.12;125269;1092;64172;-84
2021/07/08 05:44:42;;;;;;;5.37;4.67;;;;;;;22.51;58.60;99398.02;124797;1093;64277;-84
2021/07/08 05:47:09;;;;;;;6.60;5.70;;;;;;;22.42;59.26;99400.89;124909;1093;64291;-84
2021/07/08 05:49:35;;;;;;;7.00;5.10;;;;;;;22.44;59.97;99398.86;124886;1093;64239;-83
2021/07/08 05:52:02;;;;;;;6.30;5.50;;;;;;;22.52;60.17;99401.58;124846;1092;64360;-84
2021/07/08 05:54:29;;;;;;;7.43;4.83;;;;;;;22.68;60.14;99398.02;124745;1093;64414;-84
2021/07/08 05:56:55;;;;;;;7.97;5.30;;;;;;;22.99;60.16;99393.59;124840;1093;64281;-84
2021/07/08 05:59:24;;;;;;;7.83;6.07;;;;;;;23.60;59.36;99376.73;124839;1093;64273;-84
2021/07/08 06:01:51;;;;;;;9.67;5.60;;;;;;;23.88;59.21;99385.27;124890;1092;64242;-84
2021/07/08 06:04:18;;;;;;;7.27;5.90;;;;;;;23.91;58.73;99382.22;124853;1093;64287;-84
2021/07/08 06:06:44;;;;;;;8.03;5.10;;;;;;;23.87;58.63;99378.98;124880;1093;64266;-84
2021/07/08 06:09:11;;;;;;;6.00;5.20;;;;;;;23.78;58.77;99376.52;124884;1092;64421;-84
2021/07/08 06:11:38;;;;;;;6.23;4.90;;;;;;;23.77;58.63;99380.24;124826;1093;64297;-84
2021/07/08 06:14:04;;;;;;;7.40;5.00;;;;;;;24.03;58.45;99374.48;124857;1093;64223;-84
2021/07/08 06:16:31;;;;;;;6.83;4.90;;;;;;;24.32;57.83;99365.59;124948;1093;64386;-84
2021/07/08 06:18:58;;;;;;;5.93;5.33;;;;;;;24.30;57.73;99378.54;124868;1093;64294;-84
2021/07/08 06:21:24;;;;;;;5.13;4.67;;;;;;;24.33;57.83;99380.92;124924;1093;64281;-84
2021/07/08 06:23:52;;;;;;;6.90;5.03;;;;;;;24.26;58.14;99385.39;124896;1093;64290;-84
2021/07/08 06:26:18;;;;;;;6.30;4.70;;;;;;;24.19;58.33;99381.69;124879;1093;64284;-84
2021/07/08 06:28:45;;;;;;;9.37;5.40;;;;;;;24.08;58.33;99391.13;124880;1092;64409;-84
2021/07/08 06:31:13;;;;;;;7.20;5.27;;;;;;;24.02;58.62;99379.08;124906;1092;64265;-84
2021/07/08 06:33:39;;;;;;;7.27;6.47;;;;;;;23.91;58.58;99376.78;124888;1093;64450;-84
2021/07/08 06:36:06;;;;;;;7.53;6.63;;;;;;;23.80;58.76;99377.16;124784;1093;64251;-84
2021/07/08 06:38:33;;;;;;;18.93;8.47;;;;;;;23.76;59.27;99384.00;124749;1093;64759;-83
2021/07/08 06:40:59;;;;;;;23.87;6.23;;;;;;;24.13;58.74;99374.25;124864;1093;64280;-83
2021/07/08 06:43:26;;;;;;;7.73;6.93;;;;;;;24.22;58.77;99370.43;124889;1093;64268;-83
2021/07/08 06:45:52;;;;;;;11.90;8.33;;;;;;;24.50;58.14;99379.78;124893;1092;64313;-84
2021/07/08 06:48:19;;;;;;;10.27;7.40;;;;;;;24.79;58.13;99369.14;124937;1093;64683;-84
2021/07/08 06:50:46;;;;;;;15.10;8.00;;;;;;;25.00;57.56;99376.60;124890;1093;64185;-84
2021/07/08 06:53:12;;;;;;;15.17;7.67;;;;;;;25.18;57.43;99360.75;124878;1093;64326;-84
2021/07/08 06:55:39;;;;;;;12.50;8.50;;;;;;;25.09;57.28;99364.56;124899;1093;64438;-84
2021/07/08 06:58:06;;;;;;;9.23;7.07;;;;;;;25.19;57.40;99367.89;124902;1093;64322;-84
2021/07/08 07:00:38;;;;;;;8.40;6.30;;;;;;;25.63;56.81;99367.02;124850;1093;64287;-84
2021/07/08 07:03:06;;;;;;;8.10;6.07;;;;;;;26.14;56.16;99379.81;124859;1092;64265;-84
2021/07/08 07:05:34;;;;;;;12.60;6.87;;;;;;;26.54;55.51;99382.97;124820;1092;64306;-85
2021/07/08 07:08:02;;;;;;;10.93;7.10;;;;;;;26.84;54.79;99378.19;124859;1093;64294;-85
2021/07/08 07:10:29;;;;;;;10.70;8.47;;;;;;;27.11;54.22;99371.02;124882;1093;64325;-85
2021/07/08 07:12:58;;;;;;;13.30;11.63;;;;;;;27.36;53.49;99371.42;124871;1093;64248;-84
2021/07/08 07:15:29;;;;;;;10.30;8.15;;;;;;;27.52;53.36;99367.50;125017;1093;64296;-84
2021/07/08 07:17:57;;;;;;;9.57;8.07;;;;;;;27.81;52.92;99363.64;124964;1093;64228;-84
2021/07/08 07:20:24;;;;;;;9.57;7.70;;;;;;;27.96;52.58;99358.86;124872;1093;64338;-84
2021/07/08 07:22:51;;;;;;;9.73;8.73;;;;;;;28.05;51.50;99356.76;124811;1092;64412;-84
2021/07/08 07:25:19;;;;;;;10.70;9.60;;;;;;;28.08;51.38;99352.77;124816;1093;64323;-84
2021/07/08 07:27:49;;;;;;;10.87;9.87;;;;;;;28.01;51.21;99352.73;124978;1093;64214;-84
2021/07/08 07:30:18;;;;;;;12.77;11.37;;;;;;;28.07;50.31;99356.53;124901;1091;64621;-84
2021/07/08 07:32:45;;;;;;;8.00;7.20;;;;;;;27.89;51.03;99362.63;124875;1093;64268;-84
2021/07/08 07:35:12;;;;;;;9.37;6.70;;;;;;;27.63;50.83;99352.38;124912;1093;64287;-84
2021/07/08 07:37:39;;;;;;;10.03;8.20;;;;;;;27.35;51.16;99353.29;124892;1093;64273;-86
2021/07/08 07:40:08;;;;;;;7.47;5.53;;;;;;;27.24;51.96;99359.34;124885;1093;64281;-84
2021/07/08 07:42:36;;;;;;;11.43;7.03;;;;;;;27.22;51.92;99350.48;124928;1093;64287;-84
2021/07/08 07:45:07;;;;;;;11.37;8.53;;;;;;;27.21;52.02;99348.80;124965;1093;64363;-83
2021/07/08 07:47:34;;;;;;;10.93;9.90;;;;;;;27.04;51.67;99340.02;124947;1093;64290;-84
2021/07/08 07:50:03;;;;;;;8.90;7.60;;;;;;;26.99;52.02;99340.64;124868;1093;64194;-86
2021/07/08 07:52:29;;;;;;;13.65;11.20;;;;;;;26.87;51.85;99340.34;124913;1093;64658;-85
2021/07/08 07:54:55;;;;;;;13.90;10.93;;;;;;;26.73;52.20;99337.73;124885;1093;64241;-84
2021/07/08 07:57:22;;;;;;;17.10;11.47;;;;;;;26.53;52.53;99338.39;124856;1093;64298;-84
2021/07/08 07:59:50;;;;;;;12.10;10.85;;;;;;;26.51;52.52;99329.50;124837;1093;64326;-84
2021/07/08 08:02:18;;;;;;;13.67;10.07;;;;;;;26.52;53.01;99324.94;124929;1093;64347;-84
2021/07/08 08:10:12;;;;;;;10.07;7.77;;;;;;;27.11;53.98;99328.07;124842;1093;64268;-83
2021/07/08 08:12:39;;;;;;;8.03;6.47;;;;;;;27.45;53.88;99326.39;124886;1093;64724;-83
2021/07/08 08:15:09;;;;;;;13.93;10.63;;;;;;;27.62;53.06;99329.63;124891;1093;64273;-84
2021/07/08 08:17:36;;;;;;;;;;;;;;;27.63;51.61;99322.26;124954;1093;64367;-84
2021/07/08 08:20:06;;;;;;;12.83;10.63;;;;;;;27.46;52.34;99330.84;124870;1093;64282;-84
2021/07/08 08:22:33;;;;;;;10.43;8.80;;;;;;;27.38;52.17;99328.23;124840;1092;64360;-84
2021/07/08 08:25:00;;;;;;;11.75;9.85;;;;;;;27.36;52.36;99322.16;124890;1093;64306;-84
2021/07/08 08:27:26;;;;;;;11.90;9.27;;;;;;;27.35;52.68;99326.75;124777;1093;64355;-84
2021/07/08 08:29:53;;;;;;;9.63;8.07;;;;;;;27.34;52.49;99322.34;124910;1093;64284;-84
2021/07/08 08:32:20;;;;;;;8.30;7.40;;;;;;;27.41;52.67;99329.73;124880;1093;64284;-84
2021/07/08 08:34:46;;;;;;;8.30;7.55;;;;;;;27.49;52.93;99322.20;124873;1093;64380;-84
2021/07/08 08:37:14;;;;;;;7.50;6.70;;;;;;;27.51;53.22;99311.88;124767;1092;64436;-85
2021/07/08 08:39:41;;;;;;;9.83;8.03;;;;;;;27.55;53.16;99320.55;124834;1093;64380;-84
2021/07/08 08:42:09;;;;;;;10.60;8.50;;;;;;;27.55;52.95;99306.85;124903;1093;64310;-84
2021/07/08 08:44:37;;;;;;;13.40;9.00;;;;;;;27.59;52.78;99305.38;124933;1093;64273;-84
2021/07/08 08:47:08;;;;;;;11.27;9.27;;;;;;;27.59;52.73;99302.64;124852;1093;64348;-84
2021/07/08 08:49:42;;;;;;;13.30;9.73;;;;;;;27.62;53.21;99294.04;124846;1093;64268;-84
2021/07/08 08:52:11;;;;;;;9.50;8.00;;;;;;;27.62;53.34;99294.04;124919;1093;64287;-84
2021/07/08 08:54:41;;;;;;;13.53;7.93;;;;;;;27.58;52.53;99290.01;124943;1093;64268;-84
2021/07/08 08:57:08;;;;;;;9.97;7.80;;;;;;;27.42;53.11;99290.38;124950;1093;64319;-84
2021/07/08 08:59:35;;;;;;;10.07;8.60;;;;;;;27.38;53.69;99289.08;124720;1093;64426;-84
2021/07/08 09:02:19;;;;;;;7.57;6.70;;;;;;;27.50;53.73;99285.56;124890;1093;64325;-84
2021/07/08 09:04:47;;;;;;;11.40;8.20;;;;;;;27.63;53.47;99275.70;124894;1093;64311;-84
2021/07/08 09:07:32;;;;;;;18.60;8.43;;;;;;;27.77;53.55;99280.16;124832;1093;64251;-84
2021/07/08 09:10:09;;;;;;;10.67;8.47;;;;;;;27.69;53.34;99280.34;124838;1093;64294;-83
2021/07/08 09:12:36;;;;;;;14.47;8.10;;;;;;;27.75;53.34;99279.52;124847;1093;64422;-85
2021/07/08 09:15:17;;;;;;;12.55;7.55;;;;;;;27.75;52.90;99279.52;124878;1092;64463;-84
2021/07/08 09:17:45;;;;;;;7.43;6.73;;;;;;;27.87;53.14;99277.90;124930;1092;64612;-84
2021/07/08 09:20:15;;;;;;;9.07;7.57;;;;;;;28.01;52.92;99268.63;124967;1093;64265;-84
2021/07/08 09:22:46;;;;;;;8.40;7.60;;;;;;;28.18;52.69;99270.98;124868;1093;64265;-84
2021/07/08 09:25:19;;;;;;;15.13;7.83;;;;;;;28.27;52.24;99277.94;124815;1093;64246;-85
2021/07/08 09:28:10;;;;;;;12.77;9.83;;;;;;;28.29;51.89;99273.09;124859;1093;64338;-84
2021/07/08 09:30:37;;;;;;;11.83;7.70;;;;;;;28.24;52.70;99264.66;124843;1093;64284;-84
2021/07/08 09:33:24;;;;;;;9.33;7.20;;;;;;;28.42;52.86;99261.28;124854;1093;64268;-84
2021/07/08 09:35:50;;;;;;;13.90;8.47;;;;;;;28.53;52.27;99257.92;124942;1093;64287;-84
2021/07/08 09:38:25;;;;;;;14.60;9.00;;;;;;;28.64;51.66;99259.17;124848;1093;64428;-84
2021/07/08 09:41:08;;;;;;;8.67;7.63;;;;;;;28.65;50.94;99258.14;124912;1093;64287;-84
2021/07/08 09:43:37;;;;;;;11.47;7.63;;;;;;;28.81;51.17;99254.93;124850;1092;64640;-84
2021/07/08 09:46:05;;;;;;;8.30;7.38;;;;;;;28.92;50.95;99250.68;124868;1093;64619;-83
2021/07/08 09:48:32;;;;;;;11.63;6.53;;;;;;;29.12;50.71;99252.53;124914;1093;64322;-83
2021/07/08 09:50:59;;;;;;;11.10;7.10;;;;;;;29.37;50.53;99248.00;124885;1093;64370;-83
2021/07/08 09:53:27;;;;;;;10.03;7.00;;;;;;;29.64;49.73;99250.61;124897;1092;64210;-83
2021/07/08 09:58:28;;;;;;;11.30;7.73;;;;;;;29.80;49.35;99243.78;124867;1093;64191;-83
2021/07/08 10:00:55;;;;;;;11.93;6.97;;;;;;;29.97;49.63;99240.28;124912;1091;64290;-83
2021/07/08 10:03:21;;;;;;;9.47;6.97;;;;;;;30.28;49.59;99246.84;124942;1093;64322;-83
2021/07/08 10:05:48;;;;;;;10.60;7.57;;;;;;;30.68;49.82;99240.13;124901;1092;64268;-84
2021/07/08 10:08:15;;;;;;;14.33;8.07;;;;;;;30.85;49.42;99243.98;124902;1093;64271;-84
2021/07/08 10:10:42;;;;;;;14.33;8.03;;;;;;;30.93;49.38;99240.91;124902;1093;64286;-84
2021/07/08 10:13:10;;;;;;;8.53;7.00;;;;;;;31.01;49.16;99246.11;124872;1093;64345;-84
2021/07/08 10:15:41;;;;;;;10.60;7.30;;;;;;;31.12;48.97;99241.75;124887;1092;64284;-84
2021/07/08 10:18:12;;;;;;;14.90;8.50;;;;;;;31.13;48.50;99239.86;124914;1092;64396;-84
2021/07/08 10:20:41;;;;;;;10.95;8.00;;;;;;;31.08;48.24;99228.70;124887;1093;64220;-84
2021/07/08 10:23:10;;;;;;;9.27;8.27;;;;;;;30.95;47.59;99230.53;124873;1093;64273;-84
2021/07/08 10:25:37;;;;;;;11.88;7.90;;;;;;;30.84;48.23;99225.80;124878;1093;64404;-84
2021/07/08 10:28:04;;;;;;;11.27;8.03;;;;;;;30.80;47.80;99225.36;124841;1093;64268;-84
2021/07/08 10:30:32;;;;;;;9.73;8.83;;;;;;;30.60;48.06;99236.59;124882;1093;64428;-84
2021/07/08 10:32:59;;;;;;;9.53;7.87;;;;;;;30.57;48.66;99231.55;124894;1093;64274;-84
2021/07/08 10:35:46;;;;;;;8.15;7.40;;;;;;;30.53;48.99;99226.72;124869;1093;64609;-84
2021/07/08 10:38:40;;;;;;;12.47;8.10;;;;;;;30.49;49.53;99222.73;124864;1093;64265;-84
2021/07/08 10:41:09;;;;;;;10.63;9.27;;;;;;;30.31;49.37;99224.39;124842;1093;66321;-84
2021/07/08 10:43:39;;;;;;;;;;;;;;;30.21;49.34;99218.52;124887;1093;64268;-84
2021/07/08 10:46:07;;;;;;;12.90;10.50;;;;;;;30.06;49.44;99221.59;124905;1093;64374;-84
2021/07/08 10:48:48;;;;;;;14.97;10.57;;;;;;;29.99;49.58;99212.59;124938;1093;64287;-83
2021/07/08 10:51:18;;;;;;;12.37;8.53;;;;;;;29.94;49.89;99204.17;124918;1093;64296;-84
2021/07/08 10:53:46;;;;;;;10.53;8.70;;;;;;;30.00;50.29;99200.52;124896;1093;64329;-84
2021/07/08 10:56:19;;;;;;;10.53;8.90;;;;;;;30.21;50.23;99196.53;124927;1092;64281;-84
2021/07/08 10:58:49;;;;;;;12.07;10.40;;;;;;;30.59;49.68;99190.04;124908;1093;64210;-84
2021/07/08 11:01:21;;;;;;;9.90;9.00;;;;;;;31.27;49.27;99176.11;124927;1093;64360;-84
2021/07/08 11:03:53;;;;;;;10.77;9.10;;;;;;;31.73;48.39;99181.19;124898;1093;64269;-84
2021/07/08 11:06:30;;;;;;;13.47;9.53;;;;;;;31.93;47.93;99179.83;124871;1093;64351;-84
2021/07/08 11:09:02;;;;;;;13.30;9.60;;;;;;;32.12;48.26;99175.09;124930;1093;64386;-84
2021/07/08 11:11:28;;;;;;;15.10;9.05;;;;;;;32.17;47.26;99166.07;124910;1093;64315;-84
2021/07/08 11:13:57;;;;;;;13.13;10.90;;;;;;;31.95;47.47;99171.34;124891;1093;64290;-84
2021/07/08 11:16:46;;;;;;;13.70;9.90;;;;;;;31.99;48.12;99178.03;124882;1093;64287;-84
2021/07/08 11:19:15;;;;;;;;;;;;;;;32.08;46.72;99168.35;124866;1093;64214;-84
2021/07/08 11:21:51;;;;;;;11.53;9.77;;;;;;;32.09;46.61;99169.19;124850;1092;64300;-84
2021/07/08 11:24:23;;;;;;;14.20;9.93;;;;;;;32.22;46.66;99170.88;124848;1093;64276;-84
2021/07/08 11:26:54;;;;;;;11.80;10.17;;;;;;;32.34;46.64;99168.97;124854;1093;64647;-84
2021/07/08 11:29:40;;;;;;;13.75;9.55;;;;;;;32.58;46.43;99158.78;124887;1093;64260;-84
2021/07/08 11:32:43;;;;;;;14.10;10.70;;;;;;;32.80;45.93;99159.80;124855;1093;64290;-84
2021/07/08 11:35:16;;;;;;;14.27;10.30;;;;;;;33.01;45.81;99161.09;124811;1093;64415;-84
2021/07/08 11:37:53;;;;;;;11.37;10.17;;;;;;;33.13;45.19;99152.78;124896;1093;64309;-82